sensor_id;sensor_type;location;lat;lon;timestamp;P1;durP1;ratioP1;P2;durP2;ratioP2
4468;SDS011;2247;42.666;23.292;2023-03-14T00:00:06;26.00;;;13.87;;
4468;SDS011;2247;42.666;23.292;2023-03-14T00:02:35;27.87;;;13.90;;
4468;SDS011;2247;42.666;23.292;2023-03-14T00:05:01;26.60;;;14.33;;
4468;SDS011;2247;42.666;23.292;2023-03-14T00:07:31;26.80;;;14.50;;
4468;SDS011;2247;42.666;23.292;2023-03-14T00:10:02;29.30;;;14.33;;
4468;SDS011;2247;42.666;23.292;2023-03-14T00:12:30;30.27;;;14.20;;
4468;SDS011;2247;42.666;23.292;2023-03-14T00:14:57;26.47;;;14.30;;
4468;SDS011;2247;42.666;23.292;2023-03-14T00:17:25;26.03;;;14.03;;
4468;SDS011;2247;42.666;23.292;2023-03-14T00:19:52;31.63;;;14.93;;
4468;SDS011;2247;42.666;23.292;2023-03-14T00:22:19;29.20;;;14.23;;
4468;SDS011;2247;42.666;23.292;2023-03-14T00:24:46;27.87;;;14.20;;
4468;SDS011;2247;42.666;23.292;2023-03-14T00:27:14;28.00;;;14.53;;
4468;SDS011;2247;42.666;23.292;2023-03-14T00:29:42;33.20;;;14.27;;
4468;SDS011;2247;42.666;23.292;2023-03-14T00:32:09;25.93;;;13.83;;
4468;SDS011;2247;42.666;23.292;2023-03-14T00:34:36;25.17;;;14.17;;
4468;SDS011;2247;42.666;23.292;2023-03-14T00:37:03;22.37;;;12.37;;
4468;SDS011;2247;42.666;23.292;2023-03-14T00:39:30;25.43;;;13.67;;
4468;SDS011;2247;42.666;23.292;2023-03-14T00:41:57;23.43;;;13.10;;
4468;SDS011;2247;42.666;23.292;2023-03-14T00:44:25;31.57;;;13.87;;
4468;SDS011;2247;42.666;23.292;2023-03-14T00:46:53;30.77;;;14.00;;
4468;SDS011;2247;42.666;23.292;2023-03-14T00:49:20;25.47;;;13.47;;
4468;SDS011;2247;42.666;23.292;2023-03-14T00:51:47;26.40;;;13.37;;
4468;SDS011;2247;42.666;23.292;2023-03-14T00:54:13;23.20;;;13.40;;
4468;SDS011;2247;42.666;23.292;2023-03-14T00:56:40;23.67;;;12.57;;
4468;SDS011;2247;42.666;23.292;2023-03-14T00:59:07;23.70;;;12.50;;
4468;SDS011;2247;42.666;23.292;2023-03-14T01:01:35;24.07;;;12.70;;
4468;SDS011;2247;42.666;23.292;2023-03-14T01:04:03;21.20;;;12.07;;
4468;SDS011;2247;42.666;23.292;2023-03-14T01:06:29;24.80;;;13.00;;
4468;SDS011;2247;42.666;23.292;2023-03-14T01:08:57;22.10;;;12.37;;
4468;SDS011;2247;42.666;23.292;2023-03-14T01:11:25;26.90;;;12.77;;
4468;SDS011;2247;42.666;23.292;2023-03-14T01:13:53;21.90;;;12.93;;
4468;SDS011;2247;42.666;23.292;2023-03-14T01:16:20;22.03;;;13.10;;
4468;SDS011;2247;42.666;23.292;2023-03-14T01:18:49;23.30;;;12.27;;
4468;SDS011;2247;42.666;23.292;2023-03-14T01:21:18;23.50;;;13.33;;
4468;SDS011;2247;42.666;23.292;2023-03-14T01:23:46;24.70;;;13.13;;
4468;SDS011;2247;42.666;23.292;2023-03-14T01:26:15;20.73;;;12.27;;
4468;SDS011;2247;42.666;23.292;2023-03-14T01:28:44;22.83;;;13.03;;
4468;SDS011;2247;42.666;23.292;2023-03-14T01:31:12;22.70;;;12.80;;
4468;SDS011;2247;42.666;23.292;2023-03-14T01:33:39;21.60;;;12.10;;
4468;SDS011;2247;42.666;23.292;2023-03-14T01:36:08;21.33;;;12.53;;
4468;SDS011;2247;42.666;23.292;2023-03-14T01:38:37;18.50;;;11.87;;
4468;SDS011;2247;42.666;23.292;2023-03-14T01:41:06;23.40;;;12.40;;
4468;SDS011;2247;42.666;23.292;2023-03-14T01:43:34;22.50;;;13.13;;
4468;SDS011;2247;42.666;23.292;2023-03-14T01:49:06;20.57;;;12.30;;
4468;SDS011;2247;42.666;23.292;2023-03-14T01:51:41;23.97;;;13.17;;
4468;SDS011;2247;42.666;23.292;2023-03-14T01:54:13;24.03;;;13.47;;
4468;SDS011;2247;42.666;23.292;2023-03-14T01:56:44;24.07;;;13.00;;
4468;SDS011;2247;42.666;23.292;2023-03-14T01:59:16;23.97;;;12.40;;
4468;SDS011;2247;42.666;23.292;2023-03-14T02:01:44;19.57;;;11.80;;
4468;SDS011;2247;42.666;23.292;2023-03-14T02:04:13;19.13;;;12.23;;
4468;SDS011;2247;42.666;23.292;2023-03-14T02:06:50;21.37;;;11.53;;
4468;SDS011;2247;42.666;23.292;2023-03-14T02:09:21;18.10;;;11.57;;
4468;SDS011;2247;42.666;23.292;2023-03-14T02:11:48;21.17;;;11.17;;
4468;SDS011;2247;42.666;23.292;2023-03-14T02:14:19;19.60;;;11.50;;
4468;SDS011;2247;42.666;23.292;2023-03-14T02:16:56;24.70;;;11.67;;
4468;SDS011;2247;42.666;23.292;2023-03-14T02:19:25;19.47;;;11.33;;
4468;SDS011;2247;42.666;23.292;2023-03-14T02:22:06;24.40;;;12.27;;
4468;SDS011;2247;42.666;23.292;2023-03-14T02:24:38;25.13;;;12.40;;
4468;SDS011;2247;42.666;23.292;2023-03-14T02:27:13;20.53;;;11.43;;
4468;SDS011;2247;42.666;23.292;2023-03-14T02:29:45;20.27;;;10.93;;
4468;SDS011;2247;42.666;23.292;2023-03-14T02:32:17;16.00;;;10.90;;
4468;SDS011;2247;42.666;23.292;2023-03-14T02:34:46;19.47;;;11.50;;
4468;SDS011;2247;42.666;23.292;2023-03-14T02:37:17;17.20;;;11.17;;
4468;SDS011;2247;42.666;23.292;2023-03-14T02:39:47;18.03;;;10.43;;
4468;SDS011;2247;42.666;23.292;2023-03-14T02:42:16;30.13;;;11.87;;
4468;SDS011;2247;42.666;23.292;2023-03-14T02:44:48;16.50;;;10.50;;
4468;SDS011;2247;42.666;23.292;2023-03-14T02:47:18;18.10;;;10.43;;
4468;SDS011;2247;42.666;23.292;2023-03-14T02:49:48;30.47;;;10.87;;
4468;SDS011;2247;42.666;23.292;2023-03-14T02:52:16;21.33;;;11.40;;
4468;SDS011;2247;42.666;23.292;2023-03-14T02:54:43;21.50;;;12.10;;
4468;SDS011;2247;42.666;23.292;2023-03-14T02:57:10;19.17;;;11.40;;
4468;SDS011;2247;42.666;23.292;2023-03-14T02:59:38;23.50;;;11.80;;
4468;SDS011;2247;42.666;23.292;2023-03-14T03:02:04;22.10;;;12.30;;
4468;SDS011;2247;42.666;23.292;2023-03-14T03:04:31;22.00;;;11.40;;
4468;SDS011;2247;42.666;23.292;2023-03-14T03:06:58;26.20;;;12.20;;
4468;SDS011;2247;42.666;23.292;2023-03-14T03:09:25;20.43;;;11.00;;
4468;SDS011;2247;42.666;23.292;2023-03-14T03:11:52;20.67;;;10.60;;
4468;SDS011;2247;42.666;23.292;2023-03-14T03:14:18;17.07;;;10.00;;
4468;SDS011;2247;42.666;23.292;2023-03-14T03:16:47;21.90;;;11.07;;
4468;SDS011;2247;42.666;23.292;2023-03-14T03:19:14;18.50;;;11.60;;
4468;SDS011;2247;42.666;23.292;2023-03-14T03:21:43;18.97;;;10.10;;
4468;SDS011;2247;42.666;23.292;2023-03-14T03:24:10;23.00;;;11.20;;
4468;SDS011;2247;42.666;23.292;2023-03-14T03:26:37;21.10;;;11.17;;
4468;SDS011;2247;42.666;23.292;2023-03-14T03:29:03;21.07;;;11.10;;
4468;SDS011;2247;42.666;23.292;2023-03-14T03:31:30;19.20;;;11.13;;
4468;SDS011;2247;42.666;23.292;2023-03-14T03:33:59;19.33;;;11.40;;
4468;SDS011;2247;42.666;23.292;2023-03-14T03:36:26;19.73;;;11.70;;
4468;SDS011;2247;42.666;23.292;2023-03-14T03:38:53;18.20;;;11.57;;
4468;SDS011;2247;42.666;23.292;2023-03-14T03:41:20;25.97;;;12.17;;
4468;SDS011;2247;42.666;23.292;2023-03-14T03:43:47;23.30;;;12.10;;
4468;SDS011;2247;42.666;23.292;2023-03-14T03:46:13;21.87;;;12.40;;
4468;SDS011;2247;42.666;23.292;2023-03-14T03:48:40;22.67;;;12.83;;
4468;SDS011;2247;42.666;23.292;2023-03-14T03:51:12;22.77;;;11.50;;
4468;SDS011;2247;42.666;23.292;2023-03-14T03:53:40;22.37;;;12.63;;
4468;SDS011;2247;42.666;23.292;2023-03-14T03:56:07;20.00;;;10.90;;
4468;SDS011;2247;42.666;23.292;2023-03-14T03:58:35;20.70;;;10.90;;
4468;SDS011;2247;42.666;23.292;2023-03-14T04:01:04;15.63;;;9.50;;
4468;SDS011;2247;42.666;23.292;2023-03-14T04:03:32;19.30;;;10.13;;
4468;SDS011;2247;42.666;23.292;2023-03-14T04:05:59;22.90;;;10.33;;
4468;SDS011;2247;42.666;23.292;2023-03-14T04:08:28;17.57;;;9.83;;
4468;SDS011;2247;42.666;23.292;2023-03-14T04:10:56;18.27;;;10.67;;
4468;SDS011;2247;42.666;23.292;2023-03-14T04:13:23;18.30;;;10.77;;
4468;SDS011;2247;42.666;23.292;2023-03-14T04:15:52;19.43;;;10.87;;
4468;SDS011;2247;42.666;23.292;2023-03-14T04:18:20;19.83;;;11.43;;
4468;SDS011;2247;42.666;23.292;2023-03-14T04:20:50;20.57;;;10.47;;
4468;SDS011;2247;42.666;23.292;2023-03-14T04:23:17;17.63;;;10.93;;
4468;SDS011;2247;42.666;23.292;2023-03-14T04:25:45;18.60;;;10.87;;
4468;SDS011;2247;42.666;23.292;2023-03-14T04:28:12;19.30;;;10.43;;
4468;SDS011;2247;42.666;23.292;2023-03-14T04:30:39;18.60;;;10.23;;
4468;SDS011;2247;42.666;23.292;2023-03-14T04:33:06;25.27;;;11.00;;
4468;SDS011;2247;42.666;23.292;2023-03-14T04:35:33;17.57;;;9.67;;
4468;SDS011;2247;42.666;23.292;2023-03-14T04:38:01;21.73;;;10.90;;
4468;SDS011;2247;42.666;23.292;2023-03-14T04:40:28;20.90;;;10.43;;
4468;SDS011;2247;42.666;23.292;2023-03-14T04:42:56;20.70;;;11.07;;
4468;SDS011;2247;42.666;23.292;2023-03-14T04:45:23;19.33;;;11.00;;
4468;SDS011;2247;42.666;23.292;2023-03-14T04:47:50;19.33;;;10.23;;
4468;SDS011;2247;42.666;23.292;2023-03-14T04:50:17;17.93;;;10.70;;
4468;SDS011;2247;42.666;23.292;2023-03-14T04:52:44;20.10;;;10.77;;
4468;SDS011;2247;42.666;23.292;2023-03-14T04:55:11;21.43;;;10.70;;
4468;SDS011;2247;42.666;23.292;2023-03-14T04:57:38;28.03;;;10.40;;
4468;SDS011;2247;42.666;23.292;2023-03-14T05:00:07;15.17;;;9.33;;
4468;SDS011;2247;42.666;23.292;2023-03-14T05:15:32;19.27;;;10.93;;
4468;SDS011;2247;42.666;23.292;2023-03-14T05:20:34;22.40;;;11.17;;
4468;SDS011;2247;42.666;23.292;2023-03-14T05:23:30;15.83;;;9.70;;
4468;SDS011;2247;42.666;23.292;2023-03-14T05:25:58;16.90;;;9.83;;
4468;SDS011;2247;42.666;23.292;2023-03-14T05:41:23;27.73;;;11.47;;
4468;SDS011;2247;42.666;23.292;2023-03-14T05:43:49;16.20;;;10.07;;
4468;SDS011;2247;42.666;23.292;2023-03-14T06:01:49;20.70;;;11.63;;
4468;SDS011;2247;42.666;23.292;2023-03-14T06:19:51;23.23;;;13.33;;
4468;SDS011;2247;42.666;23.292;2023-03-14T06:35:17;21.03;;;11.90;;
4468;SDS011;2247;42.666;23.292;2023-03-14T06:40:19;19.23;;;10.80;;
4468;SDS011;2247;42.666;23.292;2023-03-14T06:42:46;16.53;;;11.60;;
4468;SDS011;2247;42.666;23.292;2023-03-14T06:45:14;20.80;;;10.80;;
4468;SDS011;2247;42.666;23.292;2023-03-14T06:47:42;18.60;;;11.00;;
4468;SDS011;2247;42.666;23.292;2023-03-14T07:16:04;28.30;;;11.87;;
4468;SDS011;2247;42.666;23.292;2023-03-14T07:21:08;16.13;;;10.50;;
4468;SDS011;2247;42.666;23.292;2023-03-14T09:49:57;26.23;;;9.70;;
4468;SDS011;2247;42.666;23.292;2023-03-14T11:51:50;7.30;;;4.47;;
4468;SDS011;2247;42.666;23.292;2023-03-14T12:07:26;32.10;;;21.50;;
4468;SDS011;2247;42.666;23.292;2023-03-14T14:06:35;4.00;;;2.90;;
4468;SDS011;2247;42.666;23.292;2023-03-14T16:44:22;4.60;;;3.03;;
4468;SDS011;2247;42.666;23.292;2023-03-14T18:45:04;3.03;;;2.57;;
4468;SDS011;2247;42.666;23.292;2023-03-14T18:47:33;3.53;;;2.70;;
4468;SDS011;2247;42.666;23.292;2023-03-14T18:55:19;3.30;;;3.00;;
4468;SDS011;2247;42.666;23.292;2023-03-14T18:57:46;3.07;;;2.40;;
4468;SDS011;2247;42.666;23.292;2023-03-14T19:02:50;3.03;;;2.53;;
4468;SDS011;2247;42.666;23.292;2023-03-14T19:05:20;3.60;;;2.60;;
4468;SDS011;2247;42.666;23.292;2023-03-14T19:12:54;3.10;;;2.50;;
4468;SDS011;2247;42.666;23.292;2023-03-14T19:15:21;2.87;;;2.67;;
4468;SDS011;2247;42.666;23.292;2023-03-14T19:18:01;3.10;;;2.63;;
4468;SDS011;2247;42.666;23.292;2023-03-14T19:20:33;4.03;;;3.33;;
4468;SDS011;2247;42.666;23.292;2023-03-14T19:23:00;6.83;;;2.60;;
4468;SDS011;2247;42.666;23.292;2023-03-14T19:25:27;3.30;;;2.77;;
4468;SDS011;2247;42.666;23.292;2023-03-14T19:27:55;5.00;;;3.20;;
4468;SDS011;2247;42.666;23.292;2023-03-14T19:30:22;7.73;;;2.97;;
4468;SDS011;2247;42.666;23.292;2023-03-14T19:38:02;4.20;;;3.20;;
4468;SDS011;2247;42.666;23.292;2023-03-14T19:40:29;5.40;;;3.00;;
4468;SDS011;2247;42.666;23.292;2023-03-14T19:42:56;4.50;;;3.50;;
4468;SDS011;2247;42.666;23.292;2023-03-14T19:45:23;5.47;;;3.23;;
4468;SDS011;2247;42.666;23.292;2023-03-14T19:50:36;7.13;;;3.33;;
4468;SDS011;2247;42.666;23.292;2023-03-14T19:53:07;5.00;;;3.83;;
4468;SDS011;2247;42.666;23.292;2023-03-14T19:58:11;8.80;;;4.20;;
4468;SDS011;2247;42.666;23.292;2023-03-14T20:00:38;6.70;;;4.00;;
4468;SDS011;2247;42.666;23.292;2023-03-14T20:03:06;5.50;;;3.60;;
4468;SDS011;2247;42.666;23.292;2023-03-14T20:05:42;6.13;;;4.03;;
4468;SDS011;2247;42.666;23.292;2023-03-14T20:08:11;6.40;;;4.00;;
4468;SDS011;2247;42.666;23.292;2023-03-14T20:13:18;8.10;;;4.80;;
4468;SDS011;2247;42.666;23.292;2023-03-14T20:15:53;6.80;;;4.80;;
4468;SDS011;2247;42.666;23.292;2023-03-14T20:20:57;9.77;;;4.67;;
4468;SDS011;2247;42.666;23.292;2023-03-14T20:23:26;5.33;;;4.67;;
4468;SDS011;2247;42.666;23.292;2023-03-14T20:25:55;11.03;;;5.20;;
4468;SDS011;2247;42.666;23.292;2023-03-14T20:28:24;8.30;;;4.60;;
4468;SDS011;2247;42.666;23.292;2023-03-14T20:30:51;6.57;;;5.07;;
4468;SDS011;2247;42.666;23.292;2023-03-14T20:33:18;6.13;;;4.93;;
4468;SDS011;2247;42.666;23.292;2023-03-14T20:35:52;8.40;;;5.43;;
4468;SDS011;2247;42.666;23.292;2023-03-14T20:38:29;11.53;;;6.27;;
4468;SDS011;2247;42.666;23.292;2023-03-14T20:40:59;12.93;;;7.00;;
4468;SDS011;2247;42.666;23.292;2023-03-14T20:48:36;15.57;;;7.43;;
4468;SDS011;2247;42.666;23.292;2023-03-14T20:51:04;13.63;;;8.00;;
4468;SDS011;2247;42.666;23.292;2023-03-14T20:53:32;18.20;;;7.57;;
4468;SDS011;2247;42.666;23.292;2023-03-14T20:56:14;16.00;;;8.37;;
4468;SDS011;2247;42.666;23.292;2023-03-14T20:58:51;12.30;;;7.80;;
4468;SDS011;2247;42.666;23.292;2023-03-14T21:03:51;10.50;;;6.60;;
4468;SDS011;2247;42.666;23.292;2023-03-14T21:06:37;11.73;;;7.30;;
4468;SDS011;2247;42.666;23.292;2023-03-14T21:11:47;14.13;;;6.20;;
4468;SDS011;2247;42.666;23.292;2023-03-14T21:14:15;11.03;;;7.13;;
4468;SDS011;2247;42.666;23.292;2023-03-14T21:16:44;12.07;;;7.63;;
4468;SDS011;2247;42.666;23.292;2023-03-14T21:21:47;17.30;;;7.47;;
4468;SDS011;2247;42.666;23.292;2023-03-14T21:24:14;18.93;;;9.20;;
4468;SDS011;2247;42.666;23.292;2023-03-14T21:26:44;17.80;;;9.30;;
4468;SDS011;2247;42.666;23.292;2023-03-14T21:29:15;20.70;;;9.87;;
4468;SDS011;2247;42.666;23.292;2023-03-14T21:31:51;20.50;;;10.70;;
4468;SDS011;2247;42.666;23.292;2023-03-14T21:42:43;16.63;;;10.00;;
4468;SDS011;2247;42.666;23.292;2023-03-14T21:45:12;11.80;;;7.90;;
4468;SDS011;2247;42.666;23.292;2023-03-14T21:47:40;12.80;;;7.80;;
4468;SDS011;2247;42.666;23.292;2023-03-14T21:50:11;16.63;;;10.17;;
4468;SDS011;2247;42.666;23.292;2023-03-14T21:52:39;14.30;;;7.30;;
4468;SDS011;2247;42.666;23.292;2023-03-14T21:55:10;14.40;;;8.53;;
4468;SDS011;2247;42.666;23.292;2023-03-14T21:57:42;19.63;;;9.27;;
4468;SDS011;2247;42.666;23.292;2023-03-14T22:00:10;21.83;;;12.13;;
4468;SDS011;2247;42.666;23.292;2023-03-14T22:02:40;25.27;;;12.30;;
4468;SDS011;2247;42.666;23.292;2023-03-14T22:05:08;20.50;;;11.63;;
4468;SDS011;2247;42.666;23.292;2023-03-14T22:07:37;21.67;;;11.47;;
4468;SDS011;2247;42.666;23.292;2023-03-14T22:10:04;32.87;;;11.50;;
4468;SDS011;2247;42.666;23.292;2023-03-14T22:12:32;19.33;;;10.97;;
4468;SDS011;2247;42.666;23.292;2023-03-14T22:15:00;19.47;;;10.10;;
4468;SDS011;2247;42.666;23.292;2023-03-14T22:17:29;17.70;;;8.90;;
4468;SDS011;2247;42.666;23.292;2023-03-14T22:19:56;14.00;;;8.70;;
4468;SDS011;2247;42.666;23.292;2023-03-14T22:22:23;16.43;;;7.77;;
4468;SDS011;2247;42.666;23.292;2023-03-14T22:24:50;12.53;;;7.90;;
4468;SDS011;2247;42.666;23.292;2023-03-14T22:27:17;17.87;;;8.70;;
4468;SDS011;2247;42.666;23.292;2023-03-14T22:29:45;16.23;;;8.40;;
4468;SDS011;2247;42.666;23.292;2023-03-14T22:32:14;14.53;;;8.60;;
4468;SDS011;2247;42.666;23.292;2023-03-14T22:34:43;11.33;;;7.80;;
4468;SDS011;2247;42.666;23.292;2023-03-14T22:37:10;15.73;;;8.73;;
4468;SDS011;2247;42.666;23.292;2023-03-14T22:39:37;13.40;;;8.20;;
4468;SDS011;2247;42.666;23.292;2023-03-14T22:42:05;18.63;;;9.23;;
4468;SDS011;2247;42.666;23.292;2023-03-14T22:44:33;12.13;;;7.33;;
4468;SDS011;2247;42.666;23.292;2023-03-14T22:47:00;16.10;;;8.70;;
4468;SDS011;2247;42.666;23.292;2023-03-14T22:49:28;16.33;;;8.00;;
4468;SDS011;2247;42.666;23.292;2023-03-14T22:51:58;11.60;;;8.00;;
4468;SDS011;2247;42.666;23.292;2023-03-14T22:54:24;18.80;;;8.63;;
4468;SDS011;2247;42.666;23.292;2023-03-14T22:56:52;16.80;;;8.93;;
4468;SDS011;2247;42.666;23.292;2023-03-14T22:59:18;14.93;;;8.43;;
4468;SDS011;2247;42.666;23.292;2023-03-14T23:01:45;15.43;;;8.70;;
4468;SDS011;2247;42.666;23.292;2023-03-14T23:04:13;14.27;;;8.80;;
4468;SDS011;2247;42.666;23.292;2023-03-14T23:06:39;13.53;;;8.97;;
4468;SDS011;2247;42.666;23.292;2023-03-14T23:09:08;22.73;;;10.40;;
4468;SDS011;2247;42.666;23.292;2023-03-14T23:11:36;20.73;;;11.40;;
4468;SDS011;2247;42.666;23.292;2023-03-14T23:14:03;19.73;;;11.07;;
4468;SDS011;2247;42.666;23.292;2023-03-14T23:16:30;22.93;;;12.07;;
4468;SDS011;2247;42.666;23.292;2023-03-14T23:18:57;24.87;;;13.10;;
4468;SDS011;2247;42.666;23.292;2023-03-14T23:21:24;24.83;;;12.80;;
4468;SDS011;2247;42.666;23.292;2023-03-14T23:23:52;22.23;;;12.37;;
4468;SDS011;2247;42.666;23.292;2023-03-14T23:26:21;26.03;;;13.40;;
4468;SDS011;2247;42.666;23.292;2023-03-14T23:28:51;30.47;;;14.13;;
4468;SDS011;2247;42.666;23.292;2023-03-14T23:31:19;26.60;;;13.10;;
4468;SDS011;2247;42.666;23.292;2023-03-14T23:33:47;27.87;;;13.23;;
4468;SDS011;2247;42.666;23.292;2023-03-14T23:36:15;24.60;;;13.33;;
4468;SDS011;2247;42.666;23.292;2023-03-14T23:38:43;27.60;;;14.20;;
4468;SDS011;2247;42.666;23.292;2023-03-14T23:41:11;25.63;;;14.57;;
4468;SDS011;2247;42.666;23.292;2023-03-14T23:43:41;32.87;;;15.30;;
4468;SDS011;2247;42.666;23.292;2023-03-14T23:46:08;28.23;;;14.37;;
4468;SDS011;2247;42.666;23.292;2023-03-14T23:48:36;26.10;;;13.80;;
4468;SDS011;2247;42.666;23.292;2023-03-14T23:51:04;31.63;;;13.27;;
4468;SDS011;2247;42.666;23.292;2023-03-14T23:53:32;24.70;;;13.10;;
4468;SDS011;2247;42.666;23.292;2023-03-14T23:56:00;25.23;;;14.17;;
4468;SDS011;2247;42.666;23.292;2023-03-14T23:58:28;30.17;;;14.37;;
